Terminal Aerodrome Forecast
Issued by NWS Sterling, VA

Current Version | Previous Version | Graphics & Text | Print | Product List | Glossary On
Versions: 1 2 3 4 5 6 7 8 9 10 11 12 13 14 15 16 17 18 19 20 21 22 23 24 25
654
FTUS41 KLWX 040523
TAFDCA
TAF
KDCA 040523Z 0406/0506 21006KT 1SM -DZ BR OVC005
     FM040900 32010KT 6SM BR BKN080
     FM041200 33009G16KT P6SM BKN090=

USA.gov is the U.S. government's official web portal to all federal, state and local government web resources and services.